Time;durP1;ratioP1;P1;durP2;ratioP2;P2;SDS_P1;SDS_P2;PMS_P1;PMS_P2;Temp;Humidity;BMP_temperature;BMP_pressure;BME280_temperature;BME280_humidity;BME280_pressure;Samples;Min_cycle;Max_cycle;Signal;HPM_P1;HPM_P2
2023/06/20 00:01:41;;;;;;;0.50;0.30;;;;;;;19.35;90.10;95433.31;5070868;28;20985;-68
2023/06/20 00:04:10;;;;;;;0.40;0.20;;;;;;;19.35;90.51;95427.94;5070651;28;20864;-68
2023/06/20 00:06:40;;;;;;;0.60;0.40;;;;;;;19.31;89.26;95435.84;5071180;28;20519;-68
2023/06/20 00:09:08;;;;;;;0.90;0.40;;;;;;;19.26;91.08;95435.22;5071209;28;20441;-69
2023/06/20 00:11:36;;;;;;;0.50;0.40;;;;;;;19.14;91.90;95435.09;5071099;28;20497;-68
2023/06/20 00:14:05;;;;;;;0.50;0.30;;;;;;;19.16;92.71;95444.41;5070464;28;20437;-68
2023/06/20 00:16:34;;;;;;;0.50;0.30;;;;;;;19.16;95.14;95440.94;5070956;28;20448;-69
2023/06/20 00:19:03;;;;;;;0.40;0.30;;;;;;;19.13;95.29;95439.69;5070813;28;20437;-68
2023/06/20 00:21:31;;;;;;;0.77;0.57;;;;;;;19.14;95.47;95445.84;5084345;28;20487;-68
2023/06/20 00:24:01;;;;;;;0.70;0.57;;;;;;;19.05;97.30;95448.53;5079751;28;20438;-68
2023/06/20 00:26:29;;;;;;;0.40;0.30;;;;;;;19.05;95.39;95443.16;5071229;28;20433;-68
2023/06/20 00:28:57;;;;;;;0.40;0.30;;;;;;;19.06;95.33;95436.69;5070426;28;20438;-68
2023/06/20 00:31:26;;;;;;;0.50;0.40;;;;;;;18.62;100.00;95442.44;5070853;28;20456;-68
2023/06/20 00:33:54;;;;;;;0.60;0.33;;;;;;;18.80;98.37;95435.94;5070953;28;20509;-68
2023/06/20 00:36:25;;;;;;;0.40;0.30;;;;;;;18.73;99.33;95435.63;5070437;28;20981;-67
2023/06/20 00:38:54;;;;;;;0.50;0.40;;;;;;;18.73;98.32;95428.38;5070211;28;20438;-68
2023/06/20 00:41:24;;;;;;;0.40;0.30;;;;;;;18.75;98.48;95433.41;5069881;28;20530;-68
2023/06/20 00:43:52;;;;;;;0.40;0.30;;;;;;;18.77;97.01;95437.34;5070228;28;20897;-68
2023/06/20 00:46:24;;;;;;;0.60;0.30;;;;;;;18.73;96.45;95436.44;5070708;28;20437;-68
2023/06/20 00:48:53;;;;;;;0.40;0.30;;;;;;;18.76;96.29;95435.78;5074105;28;20452;-68
2023/06/20 00:51:27;;;;;;;0.57;0.33;;;;;;;18.74;97.51;95437.22;5074073;28;20554;-68
2023/06/20 00:53:57;;;;;;;0.40;0.20;;;;;;;18.73;97.63;95444.47;5073986;28;20440;-68
2023/06/20 00:56:28;;;;;;;0.73;0.73;;;;;;;18.68;99.79;95438.47;5074341;28;20441;-68
2023/06/20 00:58:56;;;;;;;0.50;0.30;;;;;;;18.49;100.00;95448.75;5074229;28;20532;-68
2023/06/20 01:01:25;;;;;;;0.40;0.20;;;;;;;18.05;100.00;95442.53;5073788;28;20469;-68
2023/06/20 01:03:56;;;;;;;0.73;0.40;;;;;;;18.29;100.00;95439.41;5074131;28;20441;-66
2023/06/20 01:06:32;;;;;;;0.50;0.37;;;;;;;18.14;100.00;95443.31;5073977;28;20433;-67
2023/06/20 01:09:10;;;;;;;0.60;0.40;;;;;;;17.97;100.00;95439.81;5074049;28;20490;-66
2023/06/20 01:11:48;;;;;;;0.40;0.20;;;;;;;18.03;100.00;95443.94;5073692;28;20477;-67
2023/06/20 01:14:22;;;;;;;0.40;0.40;;;;;;;18.23;100.00;95440.66;5073520;28;20441;-66
2023/06/20 01:16:58;;;;;;;0.40;0.30;;;;;;;18.35;100.00;95448.88;5074002;28;20506;-67
2023/06/20 01:19:53;;;;;;;0.40;0.30;;;;;;;18.38;100.00;95450.94;5048126;28;20444;-66
2023/06/20 01:22:57;;;;;;;0.40;0.30;;;;;;;17.86;100.00;95455.38;5071378;28;20496;-67
2023/06/20 01:25:33;;;;;;;0.50;0.30;;;;;;;17.42;100.00;95380.50;5073627;28;20452;-66
2023/06/20 01:28:09;;;;;;;0.40;0.20;;;;;;;18.13;100.00;95451.69;5073587;28;20480;-66
2023/06/20 01:30:43;;;;;;;0.80;0.63;;;;;;;18.26;100.00;95453.44;5072995;28;20495;-66
2023/06/20 01:33:15;;;;;;;0.50;0.50;;;;;;;18.13;100.00;95457.03;5073729;28;20463;-64
2023/06/20 01:35:47;;;;;;;0.40;0.20;;;;;;;18.16;100.00;95456.44;5073512;28;20450;-66
2023/06/20 01:38:20;;;;;;;0.70;0.40;;;;;;;18.27;100.00;95463.06;5073438;28;20437;-65
2023/06/20 01:40:50;;;;;;;0.50;0.30;;;;;;;18.24;100.00;95458.34;5073858;28;20438;-65
2023/06/20 01:43:21;;;;;;;0.40;0.30;;;;;;;18.26;100.00;95450.75;5072874;28;20477;-65
2023/06/20 01:45:51;;;;;;;0.50;0.40;;;;;;;18.24;100.00;95458.34;5073423;28;20440;-65
2023/06/20 01:48:23;;;;;;;0.40;0.30;;;;;;;18.16;100.00;95453.75;5073179;28;20931;-65
2023/06/20 01:50:53;;;;;;;1.40;0.30;;;;;;;18.07;100.00;95451.03;5073540;28;20438;-65
2023/06/20 01:53:27;;;;;;;0.63;0.60;;;;;;;18.10;100.00;95453.09;5073113;28;20492;-65
2023/06/20 01:56:02;;;;;;;0.40;0.30;;;;;;;17.99;100.00;95448.31;5073006;28;20460;-64
2023/06/20 01:58:31;;;;;;;0.60;0.40;;;;;;;17.99;100.00;95448.31;5073056;28;20465;-65
2023/06/20 02:01:00;;;;;;;0.93;0.30;;;;;;;17.74;100.00;95415.00;5072796;28;20434;-64
2023/06/20 02:03:30;;;;;;;0.60;0.30;;;;;;;18.00;100.00;95439.97;5073194;28;20516;-64
2023/06/20 02:06:00;;;;;;;1.10;0.60;;;;;;;17.81;100.00;95446.72;5072650;28;21021;-64
2023/06/20 02:08:32;;;;;;;0.50;0.40;;;;;;;17.63;100.00;95446.66;5072790;28;20438;-64
2023/06/20 02:11:01;;;;;;;0.60;0.60;;;;;;;17.74;100.00;95449.84;5072454;28;20481;-64
2023/06/20 02:13:30;;;;;;;0.40;0.33;;;;;;;17.68;100.00;95445.75;5073217;28;20495;-64
2023/06/20 02:16:00;;;;;;;0.47;0.37;;;;;;;17.68;100.00;95451.88;5072854;28;20438;-64
2023/06/20 02:18:31;;;;;;;0.60;0.50;;;;;;;17.77;100.00;95457.25;5072995;28;20843;-64
2023/06/20 02:21:05;;;;;;;0.50;0.30;;;;;;;17.82;100.00;95464.38;5072589;28;20503;-64
2023/06/20 02:23:38;;;;;;;1.67;0.70;;;;;;;17.78;100.00;95465.00;5072350;28;20527;-63
2023/06/20 02:26:09;;;;;;;0.50;0.30;;;;;;;17.75;100.00;95472.88;5072645;28;20999;-64
2023/06/20 02:28:41;;;;;;;0.47;0.40;;;;;;;17.77;100.00;95481.41;5072391;28;21007;-64
2023/06/20 02:31:14;;;;;;;0.90;0.50;;;;;;;17.78;100.00;95478.38;5078199;28;20433;-63
2023/06/20 02:33:44;;;;;;;0.50;0.40;;;;;;;17.75;100.00;95479.03;5082286;28;20842;-64
2023/06/20 02:36:13;;;;;;;0.50;0.40;;;;;;;17.62;100.00;95482.59;5073023;28;20496;-65
2023/06/20 02:38:43;;;;;;;0.40;0.30;;;;;;;17.64;100.00;95488.44;5072279;28;20950;-64
2023/06/20 02:41:11;;;;;;;0.50;0.40;;;;;;;17.55;100.00;95476.91;5072068;28;20441;-63
2023/06/20 02:43:40;;;;;;;0.50;0.50;;;;;;;17.58;100.00;95488.91;5072038;28;20520;-64
2023/06/20 02:46:17;;;;;;;0.50;0.40;;;;;;;17.42;100.00;95488.47;5071808;28;20437;-65
2023/06/20 02:48:54;;;;;;;0.70;0.50;;;;;;;17.30;100.00;95495.50;5072050;28;20531;-64
2023/06/20 02:51:25;;;;;;;0.60;0.30;;;;;;;16.96;100.00;95496.06;5071871;28;20466;-63
2023/06/20 02:54:03;;;;;;;0.60;0.50;;;;;;;16.89;100.00;95495.69;5072421;28;20449;-64
2023/06/20 02:56:36;;;;;;;0.40;0.30;;;;;;;17.19;100.00;95491.47;5071768;28;20482;-64
2023/06/20 02:59:08;;;;;;;0.53;0.37;;;;;;;17.16;100.00;95490.19;5071853;28;20453;-64
2023/06/20 03:01:38;;;;;;;0.40;0.30;;;;;;;17.25;100.00;95498.31;5046758;28;20946;-65
2023/06/20 03:04:08;;;;;;;0.50;0.37;;;;;;;16.93;100.00;95496.66;5070983;28;20483;-63
2023/06/20 03:06:37;;;;;;;3.57;0.30;;;;;;;17.08;100.00;95499.75;5071568;28;20480;-64
2023/06/20 03:09:07;;;;;;;0.97;0.30;;;;;;;17.29;100.00;95502.75;5071399;28;20452;-64
2023/06/20 03:11:36;;;;;;;1.53;0.30;;;;;;;17.29;100.00;95512.66;5070956;28;20477;-64
2023/06/20 03:14:05;;;;;;;0.60;0.30;;;;;;;17.28;100.00;95503.06;5071359;28;20884;-64
2023/06/20 03:16:34;;;;;;;0.40;0.23;;;;;;;17.41;100.00;95513.69;5071648;28;20465;-65
2023/06/20 03:19:03;;;;;;;0.50;0.43;;;;;;;17.44;100.00;95513.06;5071179;28;20954;-65
2023/06/20 03:21:31;;;;;;;0.53;0.37;;;;;;;17.49;100.00;95529.00;5071211;28;20511;-64
2023/06/20 03:23:59;;;;;;;0.40;0.30;;;;;;;17.57;100.00;95517.59;5070736;28;20508;-64
2023/06/20 03:26:29;;;;;;;0.50;0.40;;;;;;;17.63;100.00;95521.69;5071279;28;20958;-64
2023/06/20 03:28:57;;;;;;;0.40;0.30;;;;;;;17.64;100.00;95520.59;5071198;28;20895;-65
2023/06/20 03:31:26;;;;;;;0.40;0.30;;;;;;;17.40;100.00;95520.16;5071107;28;20441;-65
2023/06/20 03:33:54;;;;;;;0.40;0.30;;;;;;;17.08;100.00;95523.06;5071078;28;20801;-65
2023/06/20 03:36:23;;;;;;;0.60;0.37;;;;;;;17.31;100.00;95527.31;5071005;28;20437;-65
2023/06/20 03:38:51;;;;;;;0.60;0.50;;;;;;;17.48;100.00;95524.75;5070853;28;20791;-65
2023/06/20 03:41:19;;;;;;;0.40;0.27;;;;;;;17.40;100.00;95525.50;5070947;28;20503;-65
2023/06/20 03:43:49;;;;;;;0.60;0.60;;;;;;;17.11;100.00;95531.31;5070995;28;21064;-65
2023/06/20 03:46:17;;;;;;;0.40;0.30;;;;;;;17.19;100.00;95521.75;5070606;28;20437;-64
2023/06/20 03:48:46;;;;;;;0.40;0.27;;;;;;;17.50;100.00;95527.13;5070816;28;20999;-65
2023/06/20 03:51:14;;;;;;;0.40;0.27;;;;;;;17.59;100.00;95539.50;5070962;28;21094;-65
2023/06/20 03:53:42;;;;;;;2.50;1.80;;;;;;;17.68;100.00;95526.16;5070951;28;20992;-65
2023/06/20 03:56:11;;;;;;;0.50;0.40;;;;;;;17.48;100.00;95516.69;5070530;28;20438;-65
2023/06/20 03:58:40;;;;;;;0.60;0.30;;;;;;;16.86;100.00;95446.22;5070960;28;20448;-65
2023/06/20 04:01:10;;;;;;;0.90;0.30;;;;;;;17.56;100.00;95532.06;5070694;28;20447;-65
2023/06/20 04:03:38;;;;;;;0.40;0.30;;;;;;;17.63;100.00;95532.41;5070558;28;20465;-65
2023/06/20 04:06:06;;;;;;;0.63;0.30;;;;;;;17.59;100.00;95539.50;5070663;28;20442;-65
2023/06/20 04:08:35;;;;;;;0.40;0.30;;;;;;;17.35;100.00;95536.34;5070575;28;20464;-65
2023/06/20 04:11:03;;;;;;;2.10;1.13;;;;;;;17.51;100.00;95534.06;5070393;28;20473;-65
2023/06/20 04:13:32;;;;;;;0.50;0.30;;;;;;;17.87;100.00;95533.94;5070881;28;20441;-65
2023/06/20 04:16:00;;;;;;;0.77;0.43;;;;;;;18.08;100.00;95538.47;5070560;28;20974;-64
2023/06/20 04:18:30;;;;;;;0.50;0.30;;;;;;;17.98;100.00;95543.31;5070784;28;20444;-64
2023/06/20 04:21:02;;;;;;;0.57;0.57;;;;;;;17.47;100.00;95547.28;5070743;28;20442;-64
2023/06/20 04:23:30;;;;;;;0.50;0.40;;;;;;;17.49;100.00;95545.09;5073623;28;20473;-63
2023/06/20 04:25:59;;;;;;;0.60;0.60;;;;;;;17.39;100.00;95547.22;5074544;28;20440;-64
2023/06/20 04:28:27;;;;;;;0.60;0.30;;;;;;;17.56;100.00;95548.16;5074149;28;20514;-65
2023/06/20 04:30:55;;;;;;;0.63;0.63;;;;;;;17.33;100.00;95551.91;5074821;28;20441;-65
2023/06/20 04:33:24;;;;;;;3.03;0.93;;;;;;;17.16;100.00;95546.44;5074551;28;20434;-64
2023/06/20 04:35:57;;;;;;;0.50;0.40;;;;;;;17.40;100.00;95556.88;5074627;28;20822;-63
2023/06/20 04:38:25;;;;;;;0.60;0.40;;;;;;;17.89;100.00;95545.16;5074296;28;20512;-64
2023/06/20 04:40:58;;;;;;;0.93;0.93;;;;;;;18.32;100.00;95543.41;5078209;28;20455;-63
2023/06/20 04:43:26;;;;;;;0.40;0.30;;;;;;;18.27;100.00;95560.44;5081075;28;20856;-63
2023/06/20 04:45:56;;;;;;;0.50;0.50;;;;;;;18.11;100.00;95553.16;5074566;28;20959;-64
2023/06/20 04:48:27;;;;;;;0.60;0.37;;;;;;;18.12;100.00;95554.72;5073933;28;20441;-63
2023/06/20 04:50:58;;;;;;;0.40;0.40;;;;;;;18.18;100.00;95564.22;5074131;28;20620;-64
2023/06/20 04:53:26;;;;;;;0.57;0.50;;;;;;;18.54;100.00;95551.41;5074247;28;20441;-64
2023/06/20 04:55:56;;;;;;;0.50;0.30;;;;;;;18.90;100.00;95551.09;5073846;28;20525;-64
2023/06/20 04:58:25;;;;;;;0.40;0.30;;;;;;;19.10;100.00;95549.69;5074158;28;20452;-66
2023/06/20 05:00:53;;;;;;;0.63;0.63;;;;;;;19.32;100.00;95544.13;5074322;28;20518;-65
2023/06/20 05:03:22;;;;;;;0.60;0.50;;;;;;;19.31;100.00;95545.22;5065661;28;20450;-67
2023/06/20 05:05:51;;;;;;;0.40;0.30;;;;;;;19.28;98.39;95543.19;5069463;28;20441;-67
2023/06/20 05:08:20;;;;;;;0.80;0.50;;;;;;;19.45;97.55;95537.81;5074048;28;20441;-66
2023/06/20 05:10:49;;;;;;;7.07;2.30;;;;;;;19.00;100.00;95540.03;5073643;28;20973;-71
2023/06/20 05:13:18;;;;;;;0.50;0.50;;;;;;;19.10;100.00;95537.03;5073976;28;20957;-66
2023/06/20 05:15:46;;;;;;;0.60;0.60;;;;;;;19.10;100.00;95547.00;5073904;28;20433;-72
2023/06/20 05:18:14;;;;;;;0.40;0.40;;;;;;;18.93;100.00;95545.91;5073918;28;20445;-74
2023/06/20 05:20:43;;;;;;;1.00;0.90;;;;;;;18.79;100.00;95542.59;5074229;28;20929;-81
2023/06/20 05:23:11;;;;;;;1.17;1.07;;;;;;;18.63;100.00;95548.72;5075105;28;20434;-79
2023/06/20 05:25:41;;;;;;;0.40;0.30;;;;;;;19.05;100.00;95553.31;5074033;28;20565;-78
2023/06/20 05:28:09;;;;;;;1.50;1.40;;;;;;;19.51;100.00;95552.66;5074903;28;20442;-77
2023/06/20 05:30:38;;;;;;;1.47;1.23;;;;;;;19.13;100.00;95559.78;5074104;28;20437;-78
2023/06/20 05:33:06;;;;;;;0.50;0.40;;;;;;;19.67;100.00;95552.94;5067667;28;20980;-75
2023/06/20 05:35:34;;;;;;;1.13;0.60;;;;;;;19.73;100.00;95555.16;5073753;28;20445;-73
2023/06/20 05:38:03;;;;;;;0.40;0.33;;;;;;;20.05;100.00;95551.09;5074029;28;20473;-75
2023/06/20 05:40:32;;;;;;;0.60;0.60;;;;;;;20.05;98.22;95551.88;5073865;28;20503;-74
2023/06/20 05:43:01;;;;;;;0.57;0.57;;;;;;;20.35;100.00;95558.09;5073665;28;20444;-51
2023/06/20 05:45:30;;;;;;;1.03;1.03;;;;;;;20.16;100.00;95475.03;5073568;28;21030;-51
2023/06/20 05:47:59;;;;;;;1.00;0.67;;;;;;;20.94;100.00;95561.53;5073026;28;20476;-62
2023/06/20 05:50:27;;;;;;;1.13;0.60;;;;;;;21.37;100.00;95551.22;5073514;28;20495;-63
2023/06/20 05:52:56;;;;;;;0.50;0.50;;;;;;;21.20;100.00;95558.66;5073362;28;20930;-63
2023/06/20 05:55:24;;;;;;;1.20;1.20;;;;;;;21.55;94.87;95553.75;5073152;28;20499;-64
2023/06/20 05:57:53;;;;;;;0.60;0.60;;;;;;;21.60;100.00;95556.22;5072954;28;20484;-64
2023/06/20 06:00:23;;;;;;;0.80;0.80;;;;;;;21.55;100.00;95554.53;5073408;28;20437;-65
2023/06/20 06:02:51;;;;;;;1.33;0.40;;;;;;;21.57;96.49;95551.50;5073004;28;20500;-66
2023/06/20 06:05:20;;;;;;;2.50;0.63;;;;;;;21.87;88.27;95547.53;5073248;28;20538;-66
2023/06/20 06:07:48;;;;;;;2.93;0.40;;;;;;;22.17;97.61;95543.53;5072534;28;21072;-67
2023/06/20 06:10:17;;;;;;;0.60;0.43;;;;;;;22.22;88.60;95551.41;5072698;28;20476;-67
2023/06/20 06:12:45;;;;;;;0.97;0.70;;;;;;;22.62;91.85;95544.22;5072828;28;20500;-68
2023/06/20 06:15:14;;;;;;;0.50;0.40;;;;;;;21.88;87.31;95541.81;5073364;28;20429;-69
2023/06/20 06:17:44;;;;;;;1.00;0.53;;;;;;;22.08;88.52;95515.88;5072921;28;20436;-69
2023/06/20 06:20:17;;;;;;;0.70;0.67;;;;;;;22.49;82.02;95531.06;5072970;28;20942;-68
2023/06/20 06:22:46;;;;;;;0.60;0.57;;;;;;;22.86;86.70;95524.47;5072878;28;20434;-69
2023/06/20 06:25:14;;;;;;;0.93;0.63;;;;;;;22.97;82.91;95500.47;5072563;28;20947;-71
2023/06/20 06:27:43;;;;;;;0.93;0.93;;;;;;;22.77;81.42;95507.59;5073039;28;20438;-72
2023/06/20 06:30:14;;;;;;;0.97;0.53;;;;;;;22.71;81.23;95517.88;5072886;28;20941;-53
2023/06/20 06:32:47;;;;;;;1.90;1.80;;;;;;;22.71;81.72;95504.38;5072299;28;20437;-65
2023/06/20 06:35:19;;;;;;;0.60;0.60;;;;;;;23.45;79.53;95516.53;5059133;28;20487;-65
2023/06/20 06:37:48;;;;;;;0.97;0.97;;;;;;;23.72;81.05;95510.28;5072351;28;20437;-66
2023/06/20 06:40:16;;;;;;;0.87;0.80;;;;;;;23.91;77.48;95509.59;5071715;28;20441;-67
2023/06/20 06:42:45;;;;;;;0.60;0.50;;;;;;;23.82;75.29;95507.06;5072449;28;20818;-67
2023/06/20 06:45:13;;;;;;;2.27;1.13;;;;;;;23.20;74.45;95496.06;5071068;28;20984;-67
2023/06/20 06:47:42;;;;;;;1.23;1.13;;;;;;;24.10;76.12;95503.50;5072315;28;21011;-68
2023/06/20 06:50:12;;;;;;;0.80;0.80;;;;;;;24.23;74.62;95505.00;5072256;28;20699;-68
2023/06/20 06:52:41;;;;;;;0.67;0.67;;;;;;;24.70;75.91;95492.13;5078499;28;20434;-68
2023/06/20 06:55:10;;;;;;;1.97;0.80;;;;;;;24.39;68.05;95473.22;5085579;28;20441;-68
2023/06/20 06:57:38;;;;;;;1.10;0.80;;;;;;;24.04;67.79;95478.59;5072050;28;20434;-67
2023/06/20 07:00:11;;;;;;;0.70;0.70;;;;;;;24.41;68.16;95498.84;5072091;28;20434;-67
2023/06/20 07:02:40;;;;;;;1.40;1.33;;;;;;;24.10;67.91;95484.56;5072303;28;20490;-67
2023/06/20 07:05:12;;;;;;;0.93;0.93;;;;;;;24.26;68.31;95485.34;5061684;28;20470;-67
2023/06/20 07:07:41;;;;;;;0.60;0.50;;;;;;;25.27;68.97;95486.00;5069586;28;20438;-66
2023/06/20 07:10:10;;;;;;;0.80;0.80;;;;;;;25.45;65.08;95497.19;5070513;28;20477;-69
2023/06/20 07:12:39;;;;;;;0.60;0.50;;;;;;;25.89;64.48;95484.81;5071550;28;20440;-69
2023/06/20 07:15:08;;;;;;;1.00;0.53;;;;;;;25.97;63.08;95481.06;5071626;28;20457;-70
2023/06/20 07:17:36;;;;;;;0.83;0.70;;;;;;;25.76;62.66;95477.97;5071726;28;20425;-70
2023/06/20 07:20:09;;;;;;;0.70;0.67;;;;;;;26.11;62.69;95467.72;5071697;28;20445;-71
2023/06/20 07:22:39;;;;;;;0.60;0.60;;;;;;;26.26;59.68;95434.19;5046414;28;20441;-69
2023/06/20 07:25:08;;;;;;;0.80;0.33;;;;;;;27.00;58.63;95472.53;5071078;28;20503;-69
2023/06/20 07:27:37;;;;;;;0.40;0.40;;;;;;;27.11;58.27;95468.00;5071168;28;20445;-69
2023/06/20 07:30:06;;;;;;;1.23;1.00;;;;;;;26.73;58.78;95487.28;5071753;28;20445;-69
2023/06/20 07:32:35;;;;;;;0.90;0.80;;;;;;;25.30;59.12;95360.44;5071615;28;20438;-68
2023/06/20 07:35:03;;;;;;;0.50;0.40;;;;;;;26.86;56.54;95481.31;5071306;28;20438;-69
2023/06/20 07:37:32;;;;;;;0.97;0.97;;;;;;;26.48;58.54;95481.50;5071561;28;20669;-71
2023/06/20 07:40:06;;;;;;;0.57;0.50;;;;;;;27.19;54.71;95483.28;5071212;28;20442;-71
2023/06/20 07:42:34;;;;;;;0.53;0.50;;;;;;;26.93;52.73;95461.56;5060111;28;20492;-72
2023/06/20 07:45:02;;;;;;;2.70;0.50;;;;;;;27.19;54.46;95477.81;5069699;28;20890;-70
2023/06/20 07:47:31;;;;;;;0.80;0.80;;;;;;;28.10;51.80;95474.50;5071358;28;20840;-71
2023/06/20 07:49:59;;;;;;;2.37;1.70;;;;;;;27.14;51.79;95467.28;5071575;28;20583;-71
2023/06/20 07:52:28;;;;;;;1.17;0.90;;;;;;;27.82;51.73;95468.78;5071214;28;20469;-71
2023/06/20 07:54:57;;;;;;;1.00;0.90;;;;;;;28.17;51.19;95459.00;5064936;28;20520;-71
2023/06/20 07:57:27;;;;;;;2.60;1.00;;;;;;;27.12;53.07;95480.47;5064698;28;20448;-71
2023/06/20 07:59:55;;;;;;;0.93;0.93;;;;;;;27.46;52.56;95473.88;5071152;28;20499;-73
2023/06/20 08:02:24;;;;;;;0.70;0.70;;;;;;;26.99;53.23;95485.34;5071022;28;20429;-74
2023/06/20 08:04:52;;;;;;;0.60;0.47;;;;;;;27.85;52.91;95484.38;5071010;28;21034;-73
2023/06/20 08:07:21;;;;;;;0.50;0.50;;;;;;;27.15;52.13;95479.69;5070469;28;20441;-75
2023/06/20 08:09:49;;;;;;;1.70;0.80;;;;;;;27.12;51.80;95479.69;5061288;28;20466;-74
2023/06/20 08:12:17;;;;;;;0.70;0.57;;;;;;;27.40;51.23;95485.50;5071418;28;20437;-74
2023/06/20 08:14:47;;;;;;;0.40;0.30;;;;;;;28.40;51.83;95479.78;5071421;28;20458;-73
2023/06/20 08:17:15;;;;;;;0.83;0.60;;;;;;;27.98;49.76;95482.94;5071028;28;20433;-75
2023/06/20 08:19:44;;;;;;;0.50;0.50;;;;;;;29.09;49.89;95480.63;5071167;28;20464;-74
2023/06/20 08:22:12;;;;;;;0.50;0.47;;;;;;;29.17;48.10;95472.06;5070879;28;20480;-70
2023/06/20 08:24:40;;;;;;;1.33;0.50;;;;;;;29.13;47.14;95465.03;5071004;28;20499;-65
2023/06/20 08:27:09;;;;;;;1.00;0.80;;;;;;;29.04;47.82;95464.63;5070654;28;20484;-65
2023/06/20 08:29:37;;;;;;;0.50;0.50;;;;;;;29.99;48.47;95451.22;5070507;28;20540;-64
2023/06/20 08:32:08;;;;;;;1.10;1.10;;;;;;;29.53;47.43;95454.66;5071115;28;20757;-64
2023/06/20 08:34:36;;;;;;;1.00;0.90;;;;;;;29.46;47.71;95462.84;5058408;28;20441;-64
2023/06/20 08:37:08;;;;;;;0.80;0.60;;;;;;;30.17;44.65;95455.53;5070614;28;20520;-63
2023/06/20 08:39:36;;;;;;;0.50;0.40;;;;;;;30.80;45.29;95451.16;5070138;28;20445;-62
2023/06/20 08:42:06;;;;;;;0.37;0.30;;;;;;;31.02;45.63;95449.19;5070597;28;20975;-62
2023/06/20 08:44:34;;;;;;;0.67;0.60;;;;;;;30.93;44.73;95433.16;5070017;28;20449;-62
2023/06/20 08:47:24;;;;;;;0.93;0.93;;;;;;;30.32;44.33;95442.63;5070425;28;20484;-63
2023/06/20 08:49:53;;;;;;;1.20;1.20;;;;;;;30.17;44.53;95441.06;5070527;28;20452;-63
2023/06/20 08:52:25;;;;;;;0.70;0.57;;;;;;;30.19;43.71;95436.00;5070138;28;20476;-63
2023/06/20 08:54:55;;;;;;;2.90;0.80;;;;;;;30.15;44.72;95438.75;5070023;28;20516;-63
2023/06/20 08:57:23;;;;;;;0.57;0.57;;;;;;;30.46;44.07;95447.34;5070140;28;20449;-63
2023/06/20 08:59:53;;;;;;;0.73;0.73;;;;;;;30.49;44.50;95441.84;5069611;28;20925;-63
2023/06/20 09:02:23;;;;;;;0.50;0.50;;;;;;;30.70;43.51;95443.75;5070572;28;20441;-63
2023/06/20 09:05:06;;;;;;;0.60;0.50;;;;;;;31.15;43.06;95436.56;5037874;28;20438;-62
2023/06/20 09:07:36;;;;;;;0.40;0.33;;;;;;;30.98;43.38;95435.50;5067973;28;20481;-62
2023/06/20 09:10:06;;;;;;;0.67;0.60;;;;;;;30.42;42.60;95441.06;5077775;28;20861;-63
2023/06/20 09:12:48;;;;;;;0.43;0.40;;;;;;;31.13;41.16;95425.25;5073745;28;20436;-62
2023/06/20 09:15:18;;;;;;;0.70;0.50;;;;;;;31.53;41.49;95416.44;5073616;28;20499;-63
2023/06/20 09:17:51;;;;;;;0.47;0.40;;;;;;;32.27;41.33;95415.91;5073894;28;20436;-63
2023/06/20 09:20:25;;;;;;;0.60;0.57;;;;;;;32.93;41.89;95423.88;5073484;28;20484;-62
2023/06/20 09:22:54;;;;;;;0.40;0.40;;;;;;;33.17;40.75;95422.81;5073941;28;20510;-63
2023/06/20 09:25:23;;;;;;;0.60;0.50;;;;;;;33.05;43.07;95423.34;5073293;28;20452;-62
2023/06/20 09:27:53;;;;;;;1.00;1.00;;;;;;;32.10;41.16;95421.56;5073655;28;20479;-62
2023/06/20 09:30:21;;;;;;;0.63;0.50;;;;;;;31.70;41.36;95421.03;5073060;28;20441;-62
2023/06/20 09:32:53;;;;;;;0.50;0.47;;;;;;;31.01;43.98;95420.22;5073548;28;20483;-64
2023/06/20 09:35:24;;;;;;;0.50;0.40;;;;;;;30.60;46.30;95420.72;5073641;28;20490;-64
2023/06/20 09:37:53;;;;;;;0.40;0.30;;;;;;;31.26;46.66;95421.69;5073597;28;20837;-64
2023/06/20 09:40:21;;;;;;;1.00;0.93;;;;;;;29.95;49.01;95425.84;5073168;28;20464;-65
2023/06/20 09:42:57;;;;;;;0.70;0.63;;;;;;;29.66;50.46;95425.00;5072803;28;20473;-64
2023/06/20 09:45:25;;;;;;;2.00;0.80;;;;;;;29.73;50.94;95421.53;5047377;28;20502;-64
2023/06/20 09:47:56;;;;;;;1.80;1.10;;;;;;;29.76;51.60;95415.25;5073005;28;20481;-64
2023/06/20 09:50:28;;;;;;;0.60;0.50;;;;;;;29.52;48.47;95422.28;5073142;28;20448;-63
2023/06/20 09:53:03;;;;;;;0.80;0.70;;;;;;;29.85;49.24;95421.97;5073134;28;20445;-65
2023/06/20 09:55:34;;;;;;;0.97;0.60;;;;;;;29.45;50.13;95419.50;5073353;28;20437;-65
2023/06/20 09:58:04;;;;;;;0.57;0.57;;;;;;;29.07;49.87;95422.91;5073208;28;20942;-64
2023/06/20 10:00:34;;;;;;;0.40;0.30;;;;;;;30.18;45.67;95416.06;5073244;28;20492;-62
2023/06/20 10:03:08;;;;;;;0.63;0.63;;;;;;;31.29;47.87;95412.66;5072764;28;20433;-61
2023/06/20 10:05:39;;;;;;;0.60;0.60;;;;;;;31.38;43.69;95409.47;5073155;28;20578;-63
2023/06/20 10:08:09;;;;;;;0.43;0.40;;;;;;;31.82;45.06;95409.59;5047825;28;20985;-62
2023/06/20 10:10:37;;;;;;;0.63;0.60;;;;;;;31.79;44.74;95412.38;5072700;28;20782;-63
2023/06/20 10:13:06;;;;;;;0.60;0.57;;;;;;;31.55;45.45;95407.84;5073197;28;20456;-63
2023/06/20 10:15:35;;;;;;;0.40;0.30;;;;;;;31.90;43.93;95404.84;5072345;28;20788;-63
2023/06/20 10:18:05;;;;;;;0.50;0.40;;;;;;;31.43;44.38;95398.09;5072776;28;20822;-63
2023/06/20 10:20:37;;;;;;;0.40;0.30;;;;;;;31.53;44.00;95404.72;5072633;28;20461;-62
2023/06/20 10:23:10;;;;;;;0.60;0.60;;;;;;;31.84;42.77;95381.78;5072737;28;20441;-61
2023/06/20 10:25:51;;;;;;;0.50;0.50;;;;;;;31.54;40.25;95400.81;5058883;28;20444;-62
2023/06/20 10:28:22;;;;;;;0.57;0.57;;;;;;;31.53;41.69;95360.88;5072594;28;21012;-61
2023/06/20 10:31:00;;;;;;;0.40;0.40;;;;;;;31.46;41.03;95393.81;5072364;28;20444;-63
2023/06/20 10:33:30;;;;;;;0.77;0.77;;;;;;;31.32;41.71;95391.91;5072575;28;20448;-62
2023/06/20 10:36:00;;;;;;;0.80;0.70;;;;;;;30.01;42.30;95391.47;5072496;28;20437;-62
2023/06/20 10:38:31;;;;;;;0.67;0.57;;;;;;;30.81;41.35;95392.53;5072323;28;20440;-61
2023/06/20 10:41:13;;;;;;;0.60;0.60;;;;;;;31.23;40.59;95384.13;5072022;28;20554;-51
2023/06/20 10:43:49;;;;;;;0.57;0.57;;;;;;;31.76;39.01;95374.78;5072052;28;20894;-60
2023/06/20 10:46:19;;;;;;;0.40;0.40;;;;;;;31.57;38.93;95378.09;5071383;28;20972;-62
2023/06/20 10:48:48;;;;;;;0.40;0.37;;;;;;;31.99;38.64;95381.28;5072303;28;20828;-60
2023/06/20 10:51:16;;;;;;;0.50;0.50;;;;;;;32.90;38.91;95376.06;5064909;28;20449;-61
2023/06/20 10:53:46;;;;;;;0.70;0.60;;;;;;;33.26;40.44;95384.63;5072130;28;20519;-61
2023/06/20 10:56:25;;;;;;;0.40;0.37;;;;;;;33.93;38.21;95374.63;5071517;28;21016;-60
2023/06/20 10:58:54;;;;;;;1.23;1.07;;;;;;;34.48;38.92;95372.13;5072202;28;20963;-61
2023/06/20 11:01:27;;;;;;;0.30;0.30;;;;;;;34.83;35.84;95365.94;5071778;28;20445;-61
2023/06/20 11:03:57;;;;;;;0.53;0.47;;;;;;;34.56;35.47;95357.03;5071679;28;20479;-61
2023/06/20 11:06:29;;;;;;;0.83;0.50;;;;;;;34.30;36.95;95361.44;5071418;28;20451;-60
2023/06/20 11:08:59;;;;;;;2.53;0.50;;;;;;;33.69;39.80;95360.09;5071639;28;20523;-61
2023/06/20 11:11:35;;;;;;;0.40;0.33;;;;;;;33.28;36.40;95357.53;5071525;28;20937;-63
2023/06/20 11:14:11;;;;;;;0.40;0.37;;;;;;;34.09;37.07;95350.78;5071002;28;20969;-61
2023/06/20 11:16:39;;;;;;;1.00;0.50;;;;;;;34.90;34.88;95341.00;5071909;28;20440;-61
2023/06/20 11:19:09;;;;;;;0.70;0.70;;;;;;;34.79;36.38;95343.19;5071913;28;20528;-61
2023/06/20 11:22:01;;;;;;;2.10;0.60;;;;;;;35.25;35.90;95333.19;5071302;28;20234;-61
2023/06/20 11:24:35;;;;;;;0.70;0.40;;;;;;;35.66;34.67;95341.72;5072004;28;20194;-61
2023/06/20 11:27:14;;;;;;;0.90;0.90;;;;;;;35.03;35.22;95339.16;5071247;28;20218;-62
2023/06/20 11:29:42;;;;;;;0.80;0.63;;;;;;;35.12;36.80;95327.56;5071755;28;20636;-62
2023/06/20 11:32:12;;;;;;;0.70;0.70;;;;;;;35.32;37.23;95331.03;5070562;28;20235;-62
2023/06/20 11:34:54;;;;;;;0.60;0.50;;;;;;;34.21;36.42;95324.63;5071718;28;20335;-63
2023/06/20 11:37:23;;;;;;;0.50;0.40;;;;;;;34.85;36.22;95324.97;5048066;28;20289;-62
2023/06/20 11:39:53;;;;;;;0.37;0.30;;;;;;;35.31;34.55;95318.50;5057739;28;20203;-62
2023/06/20 11:42:22;;;;;;;0.63;0.63;;;;;;;35.82;35.59;95318.88;5071133;28;20191;-62
2023/06/20 11:44:51;;;;;;;1.37;0.70;;;;;;;35.52;32.47;95315.25;5071038;28;20191;-62